Time;durP1;ratioP1;P1;durP2;ratioP2;P2;SDS_P1;SDS_P2;PMS_P1;PMS_P2;Temp;Humidity;BMP_temperature;BMP_pressure;BME280_temperature;BME280_humidity;BME280_pressure;Samples;Min_cycle;Max_cycle;Signal;HPM_P1;HPM_P2
2022/11/27 00:01:12;;;;;;;41.20;17.33;;;6.90;99.90;;;;;;5029249;28;20201;-63
2022/11/27 00:03:43;;;;;;;31.63;14.57;;;6.90;99.90;;;;;;5029440;28;20203;-63
2022/11/27 00:06:14;;;;;;;26.47;12.60;;;7.00;99.90;;;;;;5029868;28;20288;-63
2022/11/27 00:08:42;;;;;;;27.27;12.60;;;7.00;99.90;;;;;;5021730;28;20207;-62
2022/11/27 00:11:11;;;;;;;20.97;10.30;;;7.00;99.90;;;;;;5029701;28;20289;-62
2022/11/27 00:13:38;;;;;;;16.93;8.43;;;7.10;99.90;;;;;;5031072;28;20618;-62
2022/11/27 00:16:06;;;;;;;17.67;8.50;;;7.10;99.90;;;;;;5030403;28;20277;-62
2022/11/27 00:18:34;;;;;;;15.10;7.97;;;7.10;99.90;;;;;;5029398;28;20624;-63
2022/11/27 00:21:03;;;;;;;12.13;7.07;;;7.20;99.90;;;;;;5029501;28;20218;-62
2022/11/27 00:23:32;;;;;;;15.23;8.17;;;7.20;99.90;;;;;;5028350;28;20245;-64
2022/11/27 00:25:59;;;;;;;13.80;6.73;;;7.30;99.90;;;;;;5028770;28;20321;-63
2022/11/27 00:28:28;;;;;;;11.03;6.53;;;7.30;99.90;;;;;;5032309;28;20577;-63
2022/11/27 00:30:59;;;;;;;9.63;5.87;;;7.30;99.90;;;;;;5030456;28;20206;-63
2022/11/27 00:33:26;;;;;;;8.27;5.30;;;7.30;99.90;;;;;;5032462;28;20235;-62
2022/11/27 00:35:53;;;;;;;7.73;4.90;;;7.40;99.90;;;;;;5036182;28;20202;-61
2022/11/27 00:38:20;;;;;;;8.87;5.60;;;7.40;99.90;;;;;;5037311;28;20675;-63
2022/11/27 00:40:49;;;;;;;11.90;5.67;;;7.40;99.90;;;;;;5031546;28;20581;-63
2022/11/27 00:43:16;;;;;;;9.57;6.10;;;7.40;99.90;;;;;;5031579;28;20298;-62
2022/11/27 00:45:43;;;;;;;10.53;6.10;;;7.50;99.90;;;;;;5030104;28;20751;-63
2022/11/27 00:48:10;;;;;;;9.40;5.53;;;7.50;99.90;;;;;;5031670;28;20308;-63
2022/11/27 00:50:37;;;;;;;8.53;5.33;;;7.50;99.90;;;;;;5030080;28;20199;-62
2022/11/27 00:53:04;;;;;;;8.63;5.20;;;7.50;99.90;;;;;;5028801;28;20611;-63
2022/11/27 00:55:31;;;;;;;8.33;4.60;;;7.50;99.90;;;;;;5012367;28;20198;-64
2022/11/27 00:57:59;;;;;;;9.00;5.20;;;7.40;99.90;;;;;;5030442;28;20205;-64
2022/11/27 01:00:26;;;;;;;12.53;6.87;;;7.50;99.90;;;;;;5030449;28;20218;-64
2022/11/27 01:02:53;;;;;;;9.13;5.40;;;7.50;99.90;;;;;;5028764;28;20206;-63
2022/11/27 01:05:20;;;;;;;7.50;4.90;;;7.60;99.90;;;;;;5029565;28;20657;-63
2022/11/27 01:07:47;;;;;;;7.67;4.97;;;7.50;99.90;;;;;;5030283;28;20674;-63
2022/11/27 01:10:14;;;;;;;8.57;5.03;;;7.60;99.90;;;;;;5029519;28;20227;-63
2022/11/27 01:12:41;;;;;;;6.53;4.70;;;7.60;99.90;;;;;;5030503;28;20198;-63
2022/11/27 01:15:11;;;;;;;7.53;5.07;;;7.60;99.90;;;;;;5029827;28;20709;-63
2022/11/27 01:17:38;;;;;;;7.17;3.97;;;7.60;99.90;;;;;;5029260;28;20663;-63
2022/11/27 01:20:06;;;;;;;8.50;5.00;;;7.60;99.90;;;;;;5029865;28;20559;-63
2022/11/27 01:22:33;;;;;;;9.37;4.90;;;7.60;99.90;;;;;;5028122;28;20198;-63
2022/11/27 01:25:00;;;;;;;9.10;5.53;;;7.60;99.90;;;;;;5029049;28;20736;-63
2022/11/27 01:27:27;;;;;;;9.00;5.20;;;7.60;99.90;;;;;;5029197;28;20650;-63
2022/11/27 01:29:54;;;;;;;9.33;5.77;;;7.60;99.90;;;;;;5029664;28;20655;-63
2022/11/27 01:32:23;;;;;;;9.17;5.67;;;7.60;99.90;;;;;;5028851;28;20223;-63
2022/11/27 01:34:50;;;;;;;8.73;5.20;;;7.60;99.90;;;;;;5029794;28;20286;-63
2022/11/27 01:37:17;;;;;;;8.20;4.37;;;7.60;99.90;;;;;;5030043;28;20209;-63
2022/11/27 01:39:44;;;;;;;10.10;5.07;;;7.60;99.90;;;;;;5029712;28;20206;-63
2022/11/27 01:42:11;;;;;;;10.93;6.30;;;7.60;99.90;;;;;;5030070;28;20221;-63
2022/11/27 01:44:54;;;;;;;12.23;6.07;;;7.60;99.90;;;;;;5029301;28;20286;-63
2022/11/27 01:47:43;;;;;;;12.77;6.43;;;7.70;99.90;;;;;;5026658;28;20204;-64
2022/11/27 01:50:16;;;;;;;14.27;7.43;;;7.60;99.90;;;;;;5028700;28;20202;-63
2022/11/27 01:52:48;;;;;;;13.17;7.80;;;7.60;99.90;;;;;;5028236;28;20201;-63
2022/11/27 01:55:20;;;;;;;12.27;7.07;;;7.60;99.90;;;;;;5028819;28;20574;-64
2022/11/27 01:57:49;;;;;;;11.87;6.80;;;7.60;99.90;;;;;;5030069;28;20601;-63
2022/11/27 02:00:18;;;;;;;11.90;6.83;;;7.60;99.90;;;;;;5029109;28;20329;-63
2022/11/27 02:02:47;;;;;;;9.50;5.90;;;7.60;99.90;;;;;;5010953;28;20198;-63
2022/11/27 02:05:16;;;;;;;10.50;5.43;;;7.60;99.90;;;;;;5028815;28;20225;-63
2022/11/27 02:07:44;;;;;;;11.30;6.27;;;7.60;99.90;;;;;;5029920;28;20237;-63
2022/11/27 02:10:12;;;;;;;11.03;6.43;;;7.60;99.90;;;;;;5029436;28;20194;-63
2022/11/27 02:12:50;;;;;;;12.63;6.33;;;7.70;99.90;;;;;;5026911;28;20203;-63
2022/11/27 02:15:26;;;;;;;11.83;6.40;;;7.60;99.90;;;;;;5028164;28;20195;-64
2022/11/27 02:18:12;;;;;;;12.20;6.03;;;7.60;99.90;;;;;;5027069;28;20210;-63
2022/11/27 02:20:47;;;;;;;10.83;5.70;;;7.60;99.90;;;;;;5029237;28;20285;-64
2022/11/27 02:23:48;;;;;;;9.80;5.23;;;7.60;99.90;;;;;;5029870;28;20186;-63
2022/11/27 02:26:33;;;;;;;8.87;5.13;;;7.60;99.90;;;;;;5028528;28;20302;-63
2022/11/27 02:29:04;;;;;;;9.80;5.53;;;7.60;99.90;;;;;;5028654;28;20662;-64
2022/11/27 02:31:38;;;;;;;12.27;6.40;;;7.60;99.90;;;;;;5028254;28;20253;-63
2022/11/27 02:34:19;;;;;;;9.60;5.67;;;7.60;99.90;;;;;;5028332;28;20204;-64
2022/11/27 02:36:52;;;;;;;9.97;5.97;;;7.70;99.90;;;;;;5019331;28;20222;-62
2022/11/27 02:39:24;;;;;;;9.10;5.30;;;7.70;99.90;;;;;;5028999;28;20231;-63
2022/11/27 02:41:57;;;;;;;9.57;5.47;;;7.70;99.90;;;;;;5026225;28;20306;-63
2022/11/27 02:44:27;;;;;;;7.33;4.63;;;7.70;99.90;;;;;;5028594;28;20198;-64
2022/11/27 02:46:54;;;;;;;6.80;4.20;;;7.70;99.90;;;;;;5027286;28;20211;-63
2022/11/27 02:49:23;;;;;;;7.53;4.57;;;7.70;99.90;;;;;;5028540;28;20208;-63
2022/11/27 02:51:54;;;;;;;6.97;4.50;;;7.70;99.90;;;;;;5029125;28;20225;-63
2022/11/27 02:54:26;;;;;;;7.13;4.30;;;7.80;99.90;;;;;;5028829;28;20570;-63
2022/11/27 02:56:54;;;;;;;6.63;4.67;;;7.70;99.90;;;;;;5028404;28;20214;-63
2022/11/27 02:59:24;;;;;;;8.47;4.97;;;7.80;99.90;;;;;;5028633;28;20229;-63
2022/11/27 03:01:57;;;;;;;7.17;5.13;;;7.70;99.90;;;;;;5010213;28;20218;-63
2022/11/27 03:04:28;;;;;;;7.17;4.47;;;7.80;99.90;;;;;;5025078;28;20316;-64
2022/11/27 03:06:57;;;;;;;7.53;4.23;;;7.80;99.90;;;;;;5027070;28;20305;-63
2022/11/27 03:09:29;;;;;;;5.00;3.67;;;7.80;99.90;;;;;;5026733;28;20662;-62
2022/11/27 03:11:56;;;;;;;5.50;3.80;;;7.80;99.90;;;;;;5028962;28;20186;-63
2022/11/27 03:14:24;;;;;;;4.87;3.20;;;7.70;99.90;;;;;;5010838;28;20203;-64
2022/11/27 03:17:02;;;;;;;5.03;3.70;;;7.80;99.90;;;;;;5027956;28;20197;-63
2022/11/27 03:19:37;;;;;;;4.63;3.30;;;7.80;99.90;;;;;;5027190;28;20244;-63
2022/11/27 03:22:04;;;;;;;5.43;3.63;;;7.80;99.90;;;;;;5028999;28;20531;-63
2022/11/27 03:24:34;;;;;;;7.30;4.60;;;7.80;99.90;;;;;;5010434;28;20205;-63
2022/11/27 03:27:02;;;;;;;5.10;3.63;;;7.80;99.90;;;;;;5031483;28;20218;-63
2022/11/27 03:29:34;;;;;;;5.23;3.83;;;7.80;99.90;;;;;;5031989;28;20275;-63
2022/11/27 03:32:04;;;;;;;8.27;4.63;;;7.80;99.90;;;;;;5013482;28;20626;-64
2022/11/27 03:34:32;;;;;;;5.43;3.87;;;7.90;99.90;;;;;;5032388;28;20218;-63
2022/11/27 03:36:59;;;;;;;7.00;4.57;;;7.90;99.90;;;;;;5032404;28;20190;-64
2022/11/27 03:39:27;;;;;;;8.27;4.73;;;7.90;99.90;;;;;;5031871;28;20193;-64
2022/11/27 03:42:05;;;;;;;5.27;4.23;;;7.90;99.90;;;;;;5032536;28;20219;-64
2022/11/27 03:44:42;;;;;;;4.27;3.50;;;7.90;99.90;;;;;;5032343;28;20206;-64
2022/11/27 03:47:20;;;;;;;5.23;3.53;;;7.90;99.90;;;;;;5028098;28;20310;-63
2022/11/27 03:50:05;;;;;;;3.60;2.83;;;7.90;99.90;;;;;;5030401;28;20604;-63
2022/11/27 03:52:39;;;;;;;4.87;3.30;;;7.90;99.90;;;;;;5032708;28;20274;-64
2022/11/27 03:55:11;;;;;;;4.47;3.60;;;7.90;99.90;;;;;;5031728;28;20188;-64
2022/11/27 03:57:42;;;;;;;5.10;3.57;;;7.90;99.90;;;;;;5030306;28;20659;-63
2022/11/27 04:00:11;;;;;;;4.60;3.60;;;7.90;99.90;;;;;;5031511;28;20286;-63
2022/11/27 04:02:43;;;;;;;3.43;3.00;;;7.90;99.90;;;;;;5029248;28;20559;-63
2022/11/27 04:05:10;;;;;;;2.90;2.60;;;7.90;99.90;;;;;;5031442;28;20199;-63
2022/11/27 04:07:37;;;;;;;3.80;3.03;;;7.90;99.90;;;;;;5036420;28;20218;-63
2022/11/27 04:10:06;;;;;;;3.40;2.90;;;7.90;99.90;;;;;;5031316;28;20238;-63
2022/11/27 04:12:33;;;;;;;3.20;2.40;;;7.90;99.90;;;;;;5031373;28;20195;-63
2022/11/27 04:15:00;;;;;;;4.17;3.23;;;8.00;99.90;;;;;;5031558;28;20611;-63
2022/11/27 04:17:27;;;;;;;4.43;3.20;;;8.00;99.90;;;;;;5030621;28;20272;-63
2022/11/27 04:19:55;;;;;;;3.80;3.00;;;8.00;99.90;;;;;;5031130;28;20228;-63
2022/11/27 04:22:22;;;;;;;4.20;3.20;;;8.00;99.90;;;;;;5028425;28;20214;-64
2022/11/27 04:24:49;;;;;;;3.90;2.90;;;8.00;99.90;;;;;;5013482;28;20294;-64
2022/11/27 04:27:16;;;;;;;4.17;3.03;;;7.90;99.90;;;;;;5030769;28;20323;-63
2022/11/27 04:29:44;;;;;;;3.57;2.63;;;7.90;99.90;;;;;;5031302;28;20195;-63
2022/11/27 04:32:11;;;;;;;2.50;2.30;;;7.90;99.90;;;;;;5030099;28;20312;-63
2022/11/27 04:34:38;;;;;;;3.17;2.73;;;8.00;99.90;;;;;;5031610;28;20872;-63
2022/11/27 04:37:06;;;;;;;5.33;3.50;;;8.00;99.90;;;;;;5030536;28;20277;-64
2022/11/27 04:39:33;;;;;;;3.70;2.93;;;8.00;99.90;;;;;;5013913;28;20561;-63
2022/11/27 04:42:00;;;;;;;3.73;3.10;;;8.00;99.90;;;;;;5030725;28;20194;-62
2022/11/27 04:44:27;;;;;;;4.37;3.50;;;8.00;99.90;;;;;;5031120;28;20607;-63
2022/11/27 04:46:54;;;;;;;7.43;4.10;;;8.10;99.90;;;;;;5029573;28;20260;-64
2022/11/27 04:49:21;;;;;;;9.53;5.80;;;7.90;99.90;;;;;;5029055;28;20272;-63
2022/11/27 04:51:48;;;;;;;8.97;4.57;;;8.00;99.90;;;;;;5030498;28;20207;-63
2022/11/27 04:54:16;;;;;;;8.93;5.33;;;8.00;99.90;;;;;;5031408;28;20282;-63
2022/11/27 04:56:43;;;;;;;10.77;5.77;;;8.00;99.90;;;;;;5027755;28;20210;-63
2022/11/27 04:59:10;;;;;;;7.83;4.83;;;8.00;99.90;;;;;;5030662;28;20246;-63
2022/11/27 05:01:37;;;;;;;7.67;4.77;;;8.00;99.90;;;;;;5029897;28;20195;-63
2022/11/27 05:04:04;;;;;;;6.97;4.40;;;8.00;99.90;;;;;;5031292;28;20233;-62
2022/11/27 05:06:31;;;;;;;6.20;4.10;;;8.00;99.90;;;;;;5029900;28;20235;-64
2022/11/27 05:09:00;;;;;;;5.67;3.63;;;8.10;99.90;;;;;;5029592;28;20199;-63
2022/11/27 05:11:29;;;;;;;5.07;3.50;;;8.10;99.90;;;;;;5044550;28;20199;-62
2022/11/27 05:16:37;;;;;;;6.03;4.13;;;8.10;99.90;;;;;;5028872;28;20195;-63
2022/11/27 05:19:04;;;;;;;5.47;3.90;;;8.10;99.90;;;;;;5031005;28;20649;-63
2022/11/27 05:21:31;;;;;;;8.57;4.90;;;8.10;99.90;;;;;;5029993;28;20286;-63
2022/11/27 05:23:58;;;;;;;8.83;4.77;;;8.10;99.90;;;;;;5013337;28;20658;-63
2022/11/27 05:26:25;;;;;;;6.47;3.97;;;8.10;99.90;;;;;;5029519;28;20199;-64
2022/11/27 05:28:53;;;;;;;5.07;3.50;;;8.10;99.90;;;;;;5029346;28;20194;-63
2022/11/27 05:31:21;;;;;;;6.50;4.07;;;8.10;99.90;;;;;;5029109;28;20284;-63
2022/11/27 05:33:48;;;;;;;7.43;4.70;;;8.10;99.90;;;;;;5031322;28;20285;-63
2022/11/27 05:36:14;;;;;;;9.47;4.93;;;8.10;99.90;;;;;;5027917;28;20706;-63
2022/11/27 05:38:41;;;;;;;6.27;4.07;;;8.00;99.90;;;;;;5017316;28;20206;-63
2022/11/27 05:41:09;;;;;;;6.73;4.27;;;8.00;99.90;;;;;;5029567;28;20221;-64
2022/11/27 05:43:35;;;;;;;8.03;4.83;;;8.00;99.90;;;;;;5030010;28;20194;-63
2022/11/27 05:46:06;;;;;;;7.33;4.47;;;8.00;99.90;;;;;;5028697;28;20662;-64
2022/11/27 05:48:34;;;;;;;5.80;3.83;;;7.90;99.90;;;;;;5029343;28;20670;-63
2022/11/27 05:51:01;;;;;;;7.60;5.00;;;7.90;99.90;;;;;;5027065;28;20670;-63
2022/11/27 05:53:28;;;;;;;8.97;5.50;;;7.90;99.90;;;;;;5030546;28;20222;-63
2022/11/27 05:56:00;;;;;;;10.27;5.63;;;7.90;99.90;;;;;;5029062;28;20566;-63
2022/11/27 05:58:27;;;;;;;9.20;5.20;;;7.90;99.90;;;;;;5029221;28;20218;-63
2022/11/27 06:00:54;;;;;;;7.90;4.90;;;7.80;99.90;;;;;;5026811;28;20284;-63
2022/11/27 06:03:22;;;;;;;7.10;4.53;;;7.90;99.90;;;;;;5028403;28;20647;-63
2022/11/27 06:05:49;;;;;;;6.87;4.50;;;7.80;99.90;;;;;;5029750;28;20183;-64
2022/11/27 06:08:16;;;;;;;8.13;5.03;;;7.80;99.90;;;;;;5029203;28;20214;-64
2022/11/27 06:10:43;;;;;;;9.87;5.63;;;7.80;99.90;;;;;;5029167;28;20668;-64
2022/11/27 06:13:10;;;;;;;10.77;6.37;;;7.80;99.90;;;;;;5028703;28;20675;-63
2022/11/27 06:15:37;;;;;;;7.47;5.10;;;7.70;99.90;;;;;;5029750;28;20194;-64
2022/11/27 06:18:05;;;;;;;6.37;4.17;;;7.80;99.90;;;;;;5028094;28;20598;-64
2022/11/27 06:20:33;;;;;;;6.10;4.00;;;7.70;99.90;;;;;;5029734;28;20278;-64
2022/11/27 06:23:00;;;;;;;6.00;4.03;;;7.70;99.90;;;;;;5028999;28;20293;-64
2022/11/27 06:25:27;;;;;;;12.30;6.60;;;7.70;99.90;;;;;;5028584;28;20201;-63
2022/11/27 06:27:54;;;;;;;12.30;7.07;;;7.60;99.90;;;;;;5029389;28;20541;-64
2022/11/27 06:30:21;;;;;;;12.60;6.33;;;7.70;99.90;;;;;;5011305;28;20222;-63
2022/11/27 06:32:48;;;;;;;10.40;5.53;;;7.60;99.90;;;;;;5026030;28;20234;-63
2022/11/27 06:35:15;;;;;;;6.80;4.57;;;7.70;99.90;;;;;;5029240;28;20197;-63
2022/11/27 06:37:44;;;;;;;6.20;4.17;;;7.60;99.90;;;;;;5028795;28;20620;-64
2022/11/27 06:40:11;;;;;;;8.13;4.90;;;7.60;99.90;;;;;;5027584;28;20188;-63
2022/11/27 06:42:38;;;;;;;7.83;4.63;;;7.60;99.90;;;;;;5028660;28;20282;-63
2022/11/27 06:45:06;;;;;;;6.13;4.37;;;7.60;99.90;;;;;;5028778;28;20214;-63
2022/11/27 06:47:33;;;;;;;8.97;5.20;;;7.60;99.90;;;;;;5027879;28;20726;-63
2022/11/27 06:50:00;;;;;;;10.47;6.27;;;7.50;99.90;;;;;;5029350;28;20198;-63
2022/11/27 06:52:27;;;;;;;8.57;5.10;;;7.50;99.90;;;;;;5028499;28;20198;-63
2022/11/27 06:54:56;;;;;;;8.23;5.27;;;7.50;99.90;;;;;;5029298;28;20268;-63
2022/11/27 06:57:23;;;;;;;9.27;5.67;;;7.50;99.90;;;;;;5014135;28;20202;-63
2022/11/27 06:59:50;;;;;;;9.13;5.50;;;7.50;99.90;;;;;;5028751;28;20190;-64
2022/11/27 07:02:17;;;;;;;11.43;5.83;;;7.50;99.90;;;;;;5028130;28;20218;-64
2022/11/27 07:04:44;;;;;;;10.63;6.20;;;7.50;99.90;;;;;;5028806;28;20729;-64
2022/11/27 07:07:11;;;;;;;10.30;6.17;;;7.50;99.90;;;;;;5028748;28;20221;-64
2022/11/27 07:09:38;;;;;;;9.93;5.50;;;7.50;99.90;;;;;;5029376;28;20203;-64
2022/11/27 07:12:07;;;;;;;9.97;5.60;;;7.50;99.90;;;;;;5026349;28;20199;-63
2022/11/27 07:14:34;;;;;;;10.27;5.83;;;7.50;99.90;;;;;;5028738;28;20221;-63
2022/11/27 07:17:01;;;;;;;9.00;5.10;;;7.50;99.90;;;;;;5027889;28;20563;-63
2022/11/27 07:19:28;;;;;;;7.70;4.77;;;7.50;99.90;;;;;;5029296;28;20202;-63
2022/11/27 07:21:55;;;;;;;7.87;4.73;;;7.40;99.90;;;;;;5026231;28;20202;-64
2022/11/27 07:24:22;;;;;;;6.23;3.77;;;7.40;99.90;;;;;;5040861;28;20211;-65
2022/11/27 07:26:49;;;;;;;6.80;4.57;;;7.40;99.90;;;;;;5024679;28;20708;-63
2022/11/27 07:29:17;;;;;;;12.00;6.03;;;7.50;99.90;;;;;;5028896;28;20225;-64
2022/11/27 07:31:44;;;;;;;8.20;5.23;;;7.50;99.90;;;;;;5027213;28;20228;-63
2022/11/27 07:34:11;;;;;;;8.07;4.77;;;7.50;99.90;;;;;;5024291;28;20202;-63
2022/11/27 07:36:38;;;;;;;9.83;5.27;;;7.50;99.90;;;;;;5028436;28;20223;-64
2022/11/27 07:39:05;;;;;;;8.20;4.80;;;7.50;99.90;;;;;;5028335;28;20187;-64
2022/11/27 07:41:32;;;;;;;10.57;5.90;;;7.60;99.90;;;;;;5026813;28;20210;-63
2022/11/27 07:43:59;;;;;;;8.80;5.40;;;7.60;99.90;;;;;;5027856;28;20198;-64
2022/11/27 07:46:29;;;;;;;9.27;5.47;;;7.60;99.90;;;;;;5026020;28;20214;-64
2022/11/27 07:48:55;;;;;;;8.13;4.90;;;7.60;99.90;;;;;;5026270;28;20693;-63
2022/11/27 07:51:23;;;;;;;6.90;4.07;;;7.60;99.90;;;;;;5028213;28;20198;-64
2022/11/27 07:53:51;;;;;;;7.27;4.67;;;7.70;99.90;;;;;;5026295;28;20202;-64
2022/11/27 07:56:19;;;;;;;7.27;4.33;;;7.70;99.90;;;;;;5022471;28;20202;-64
2022/11/27 07:58:46;;;;;;;6.97;4.90;;;7.80;99.90;;;;;;5027590;28;20660;-63
2022/11/27 08:01:15;;;;;;;6.23;3.90;;;7.80;99.90;;;;;;5026793;28;20653;-63
2022/11/27 08:03:44;;;;;;;6.57;4.23;;;7.80;99.90;;;;;;5028002;28;20245;-63
2022/11/27 08:06:15;;;;;;;5.97;3.67;;;7.80;99.90;;;;;;5027518;28;20209;-63
2022/11/27 08:08:43;;;;;;;5.13;3.60;;;7.80;99.90;;;;;;5027849;28;20571;-64
2022/11/27 08:11:18;;;;;;;6.50;4.60;;;7.80;99.90;;;;;;5028142;28;20271;-65
2022/11/27 08:13:45;;;;;;;5.57;3.60;;;7.80;99.90;;;;;;5029831;28;20213;-63
2022/11/27 08:16:12;;;;;;;5.43;3.60;;;7.80;99.90;;;;;;5030684;28;20198;-63
2022/11/27 08:18:39;;;;;;;6.83;4.27;;;7.80;99.90;;;;;;5031694;28;20227;-63
2022/11/27 08:21:08;;;;;;;5.47;3.60;;;7.90;99.90;;;;;;5031177;28;20194;-62
2022/11/27 08:23:35;;;;;;;5.30;3.73;;;7.90;99.90;;;;;;5031736;28;20214;-63
2022/11/27 08:26:09;;;;;;;9.30;4.67;;;7.90;99.90;;;;;;5030162;28;20209;-63
2022/11/27 08:28:36;;;;;;;6.60;4.10;;;7.90;99.90;;;;;;5030777;28;20231;-64
2022/11/27 08:31:04;;;;;;;7.00;4.47;;;8.00;99.90;;;;;;5029006;28;20202;-62
2022/11/27 08:33:32;;;;;;;4.37;3.40;;;8.00;99.90;;;;;;5031758;28;20229;-63
2022/11/27 08:35:59;;;;;;;7.67;4.23;;;8.00;99.90;;;;;;5031092;28;20253;-64
2022/11/27 08:38:28;;;;;;;5.23;3.73;;;8.10;99.90;;;;;;5029173;28;20190;-64
2022/11/27 08:40:56;;;;;;;4.73;3.50;;;8.10;99.90;;;;;;5030966;28;20278;-63
2022/11/27 08:43:24;;;;;;;6.90;4.43;;;8.10;99.90;;;;;;5030615;28;20257;-63
2022/11/27 08:45:51;;;;;;;6.60;3.93;;;8.10;99.90;;;;;;5030465;28;20621;-64
2022/11/27 08:48:19;;;;;;;8.30;4.67;;;8.10;99.90;;;;;;5030027;28;20712;-63
2022/11/27 08:50:46;;;;;;;8.90;4.83;;;8.10;99.90;;;;;;5030745;28;20273;-64
2022/11/27 08:53:14;;;;;;;7.90;5.00;;;8.10;99.90;;;;;;5030451;28;20209;-64
2022/11/27 08:55:42;;;;;;;6.03;4.20;;;8.10;99.90;;;;;;5029980;28;20273;-64
2022/11/27 08:58:09;;;;;;;11.13;6.10;;;8.10;99.90;;;;;;5030396;28;20187;-64
2022/11/27 09:00:38;;;;;;;9.10;5.80;;;8.10;99.90;;;;;;5028609;28;20198;-63
2022/11/27 09:03:05;;;;;;;7.00;5.00;;;8.10;99.90;;;;;;5029893;28;20270;-64
2022/11/27 09:05:32;;;;;;;8.33;4.67;;;8.20;99.90;;;;;;5030277;28;20638;-63
2022/11/27 09:08:01;;;;;;;6.57;4.60;;;8.20;99.90;;;;;;5030814;28;20675;-64
2022/11/27 09:10:28;;;;;;;6.30;4.57;;;8.10;99.90;;;;;;5030533;28;20211;-63
2022/11/27 09:12:58;;;;;;;6.33;4.23;;;8.20;99.90;;;;;;5030207;28;20195;-63
2022/11/27 09:15:25;;;;;;;5.80;4.03;;;8.30;99.90;;;;;;5030116;28;20206;-63
2022/11/27 09:17:52;;;;;;;7.27;4.50;;;8.30;99.90;;;;;;5029562;28;20187;-63
2022/11/27 09:20:19;;;;;;;7.47;4.77;;;8.40;99.90;;;;;;5028569;28;20282;-63
2022/11/27 09:22:46;;;;;;;6.37;4.17;;;8.40;99.90;;;;;;5030671;28;20260;-63
2022/11/27 09:25:13;;;;;;;7.43;4.50;;;8.40;99.90;;;;;;5029511;28;20315;-64
2022/11/27 09:27:40;;;;;;;6.27;4.57;;;8.40;99.90;;;;;;5030289;28;20217;-65
2022/11/27 09:30:09;;;;;;;7.13;4.87;;;8.50;99.90;;;;;;5029934;28;20191;-63
2022/11/27 09:32:36;;;;;;;6.73;4.77;;;8.50;99.90;;;;;;5028953;28;20226;-64
2022/11/27 09:35:04;;;;;;;6.33;4.40;;;8.50;99.90;;;;;;5030004;28;20282;-63
2022/11/27 09:37:31;;;;;;;7.97;4.93;;;8.50;99.90;;;;;;5030179;28;20633;-63
2022/11/27 09:39:58;;;;;;;6.27;4.43;;;8.60;99.90;;;;;;5030017;28;20196;-64
2022/11/27 09:42:38;;;;;;;5.97;4.03;;;8.60;99.90;;;;;;5029686;28;20574;-64
2022/11/27 09:45:12;;;;;;;5.33;4.20;;;8.60;99.90;;;;;;5029493;28;20195;-64
2022/11/27 09:47:44;;;;;;;4.80;3.63;;;8.70;99.90;;;;;;5028954;28;20190;-62
2022/11/27 09:50:15;;;;;;;5.90;4.07;;;8.70;99.90;;;;;;5012402;28;20295;-63
2022/11/27 09:52:44;;;;;;;5.57;4.00;;;8.70;99.90;;;;;;5027722;28;20665;-63
2022/11/27 09:55:16;;;;;;;5.37;3.77;;;8.80;99.90;;;;;;5029143;28;20192;-64
2022/11/27 09:57:51;;;;;;;4.90;3.70;;;8.90;99.90;;;;;;5027468;28;20191;-64
2022/11/27 10:00:21;;;;;;;4.77;3.57;;;8.90;99.90;;;;;;5011963;28;20227;-64
2022/11/27 10:02:48;;;;;;;7.90;5.10;;;8.90;99.90;;;;;;5028813;28;20603;-63
2022/11/27 10:05:19;;;;;;;6.70;4.70;;;9.00;99.90;;;;;;5029559;28;20586;-65
2022/11/27 10:08:01;;;;;;;6.60;4.47;;;9.00;99.90;;;;;;5029277;28;20226;-64
2022/11/27 10:10:39;;;;;;;6.30;3.87;;;9.00;99.90;;;;;;5027938;28;20196;-63
2022/11/27 10:13:18;;;;;;;5.10;3.67;;;9.00;99.90;;;;;;5027598;28;20195;-63
2022/11/27 10:15:54;;;;;;;4.60;3.53;;;9.10;99.90;;;;;;5028452;28;20271;-63
2022/11/27 10:18:30;;;;;;;5.30;3.53;;;9.20;99.90;;;;;;5027355;28;20197;-62
2022/11/27 10:21:03;;;;;;;4.27;3.50;;;9.10;99.90;;;;;;5028140;28;20639;-63
2022/11/27 10:23:42;;;;;;;4.70;3.67;;;9.20;99.90;;;;;;5029072;28;20201;-64
2022/11/27 10:26:17;;;;;;;4.23;3.47;;;9.20;99.90;;;;;;5028688;28;20202;-63
2022/11/27 10:28:51;;;;;;;4.47;3.40;;;9.30;99.90;;;;;;5028550;28;20206;-64
2022/11/27 10:31:29;;;;;;;4.37;3.50;;;9.30;99.90;;;;;;5025971;28;20338;-63
2022/11/27 10:34:00;;;;;;;4.67;3.63;;;9.40;99.90;;;;;;5027240;28;20295;-64
2022/11/27 10:36:30;;;;;;;4.10;3.70;;;9.30;99.90;;;;;;5029179;28;20205;-64
2022/11/27 10:38:59;;;;;;;4.37;3.60;;;9.40;99.90;;;;;;5029440;28;20283;-62
2022/11/27 10:41:32;;;;;;;4.00;3.60;;;9.40;99.90;;;;;;5030715;28;20192;-63
2022/11/27 10:44:08;;;;;;;4.57;3.40;;;9.40;99.90;;;;;;5026821;28;20636;-63
2022/11/27 10:46:39;;;;;;;4.90;3.70;;;9.40;99.90;;;;;;5026103;28;20193;-64
2022/11/27 10:49:06;;;;;;;4.53;3.27;;;9.40;99.90;;;;;;5028650;28;20207;-65
2022/11/27 10:51:36;;;;;;;3.50;2.90;;;9.40;99.90;;;;;;5026705;28;20276;-64
2022/11/27 10:54:07;;;;;;;3.40;3.03;;;9.40;99.90;;;;;;5028733;28;20724;-64
2022/11/27 10:56:48;;;;;;;2.60;2.40;;;9.40;99.90;;;;;;5024339;28;20831;-63
2022/11/27 10:59:17;;;;;;;2.53;2.33;;;9.40;99.90;;;;;;5027945;28;20198;-63
2022/11/27 11:01:48;;;;;;;3.37;2.53;;;9.40;99.90;;;;;;5027744;28;20251;-63
2022/11/27 11:04:20;;;;;;;3.67;2.80;;;9.40;99.90;;;;;;5026689;28;20270;-64
2022/11/27 11:06:49;;;;;;;3.03;2.27;;;9.50;99.90;;;;;;5027653;28;20268;-65
2022/11/27 11:09:19;;;;;;;3.40;2.40;;;9.50;99.90;;;;;;5025707;28;20204;-64
2022/11/27 11:11:46;;;;;;;2.40;2.17;;;9.50;99.90;;;;;;5028665;28;20195;-63
2022/11/27 11:14:22;;;;;;;2.67;2.20;;;9.40;99.90;;;;;;5028004;28;20643;-62
2022/11/27 11:16:52;;;;;;;3.23;2.73;;;9.50;99.90;;;;;;5010152;28;20201;-63
2022/11/27 11:19:25;;;;;;;4.30;2.67;;;9.60;99.90;;;;;;5026465;28;20215;-64
2022/11/27 11:21:52;;;;;;;3.70;2.50;;;9.60;99.90;;;;;;5030245;28;20250;-64
2022/11/27 11:24:27;;;;;;;3.03;2.77;;;9.60;99.90;;;;;;5028413;28;20199;-62
2022/11/27 11:26:57;;;;;;;3.00;2.53;;;9.60;99.90;;;;;;5027756;28;20192;-64
2022/11/27 11:29:32;;;;;;;2.90;2.63;;;9.60;99.90;;;;;;5027914;28;20215;-64
2022/11/27 11:32:08;;;;;;;3.77;3.20;;;9.60;99.90;;;;;;5026510;28;20743;-64
2022/11/27 11:34:36;;;;;;;3.07;2.63;;;9.70;99.90;;;;;;5027482;28;20374;-63
2022/11/27 11:37:06;;;;;;;3.70;3.00;;;9.70;99.90;;;;;;5027965;28;20199;-63
2022/11/27 11:39:39;;;;;;;4.43;3.27;;;9.70;99.90;;;;;;5010214;28;20613;-63
2022/11/27 11:42:10;;;;;;;3.47;3.10;;;9.70;99.90;;;;;;5023137;28;20749;-64
2022/11/27 11:44:39;;;;;;;4.70;3.20;;;9.80;99.90;;;;;;5028338;28;20210;-64
2022/11/27 11:47:17;;;;;;;3.83;2.83;;;9.80;99.90;;;;;;5029177;28;20280;-63
2022/11/27 11:49:45;;;;;;;4.10;3.10;;;9.80;99.90;;;;;;5028519;28;20267;-64
2022/11/27 11:52:24;;;;;;;4.27;3.23;;;9.80;99.90;;;;;;5030831;28;20221;-64
2022/11/27 11:55:00;;;;;;;3.30;2.90;;;9.80;99.90;;;;;;5037368;28;20664;-64
2022/11/27 11:58:00;;;;;;;3.97;3.10;;;9.80;99.90;;;;;;5028870;28;20595;-65
2022/11/27 12:00:38;;;;;;;3.27;2.93;;;9.80;99.90;;;;;;5029215;28;20194;-64
2022/11/27 12:03:22;;;;;;;3.87;3.50;;;9.80;99.90;;;;;;5029471;28;20646;-64
2022/11/27 12:06:12;;;;;;;3.67;3.13;;;9.80;99.90;;;;;;5031290;28;20237;-65
2022/11/27 12:08:51;;;;;;;5.03;3.67;;;9.80;99.90;;;;;;5039214;28;20292;-65
2022/11/27 12:11:22;;;;;;;5.33;3.63;;;9.90;99.90;;;;;;5037559;28;20242;-64
2022/11/27 12:14:03;;;;;;;4.20;3.60;;;9.90;99.90;;;;;;5036132;28;20222;-63
2022/11/27 12:16:41;;;;;;;8.43;4.87;;;9.90;99.90;;;;;;5036498;28;20202;-64
2022/11/27 12:19:46;;;;;;;6.57;4.47;;;9.90;99.90;;;;;;5033638;28;20193;-64
2022/11/27 12:22:22;;;;;;;4.77;3.80;;;9.90;99.90;;;;;;5028976;28;20276;-63
2022/11/27 12:24:59;;;;;;;3.63;3.27;;;9.90;99.90;;;;;;5022382;28;20304;-63
2022/11/27 12:27:35;;;;;;;3.57;2.80;;;10.00;99.90;;;;;;5025045;28;20189;-62
2022/11/27 12:30:09;;;;;;;4.37;3.23;;;10.00;99.90;;;;;;5026904;28;20540;-63
2022/11/27 12:33:03;;;;;;;7.93;4.97;;;10.00;99.90;;;;;;5026949;28;20232;-64
2022/11/27 12:35:33;;;;;;;8.03;5.33;;;10.10;99.90;;;;;;5013332;28;20616;-64
2022/11/27 12:38:31;;;;;;;10.00;6.07;;;10.10;99.90;;;;;;5028860;28;20300;-64
2022/11/27 12:41:19;;;;;;;6.50;5.03;;;10.10;99.90;;;;;;5025760;28;20716;-64
2022/11/27 12:43:54;;;;;;;5.53;4.53;;;10.10;99.90;;;;;;5021783;28;20661;-63
2022/11/27 12:46:29;;;;;;;5.23;4.20;;;10.20;99.90;;;;;;5025968;28;20194;-63
2022/11/27 12:49:01;;;;;;;6.47;4.30;;;10.30;99.90;;;;;;5027868;28;20631;-63
2022/11/27 12:51:35;;;;;;;6.23;4.20;;;10.20;99.90;;;;;;5027279;28;20228;-64
2022/11/27 12:54:07;;;;;;;5.33;3.87;;;10.20;99.90;;;;;;5027490;28;20221;-64
2022/11/27 12:56:38;;;;;;;3.83;3.43;;;10.20;99.90;;;;;;5027202;28;20210;-63
2022/11/27 12:59:20;;;;;;;3.97;3.20;;;10.20;99.90;;;;;;5024155;28;20244;-65
2022/11/27 13:02:02;;;;;;;2.60;2.40;;;10.20;99.90;;;;;;5024741;28;20538;-64
2022/11/27 13:04:35;;;;;;;3.37;2.67;;;10.20;99.90;;;;;;5027570;28;21045;-63
2022/11/27 13:07:12;;;;;;;2.30;2.10;;;10.20;99.90;;;;;;5025205;28;20277;-62
2022/11/27 13:09:50;;;;;;;3.17;2.33;;;10.20;99.90;;;;;;5007002;28;20361;-63
2022/11/27 13:12:23;;;;;;;2.27;2.07;;;10.20;99.90;;;;;;5022501;28;20405;-63
2022/11/27 13:14:55;;;;;;;2.20;2.00;;;10.20;99.90;;;;;;5022705;28;20660;-64